Airfield :
LOGIN :

Register | Disclaimer

   EN    FR    IT 

 










Legend :    VFR   Marginal VFR   IFR   Intensive IFR   Very Intensive IFR
Visi :
Ceiling :
>= 8 km
>= 3000ft
5 to 8 km
1000 to 3000 ft
1500m to 5 km
500 to 1000 ft
800 to 1500m
200 to 500 ft
< 800m
< 200 ft
Symbols :   Thunderstorms  Fog  Heavy snow  Heavy precipitations  Wind > 20 kt
SIGMETs :     Misc.  Thunderstorms  Icing  Turbulence  Mountain Waves  Volcanic Ashes






- Airport Elevation : 162 ft
- IATA code : BOD


LFBD - Bordeaux / Merignac

CURRENT METAR :
  • 261730Z AUTO 14006KT CAVOK 06/01 Q1021 BECMG 4000 -RA OVC014

EXPIRED METARs :
  • 261700Z AUTO 12008KT CAVOK 06/01 Q1021 BECMG 4000 -RA OVC014
  • 261630Z AUTO 12008KT CAVOK 07/02 Q1021 BECMG 4000 -RA OVC014
  • 261600Z AUTO 12009KT CAVOK 07/01 Q1021 NOSIG
  • 261530Z AUTO 12009KT CAVOK 07/02 Q1021 NOSIG
  • 261500Z AUTO 14008KT CAVOK 07/01 Q1022 NOSIG
  • 261430Z AUTO 14008KT CAVOK 08/02 Q1021 NOSIG

TAF TAF LFBD
Valid from the 26 at 12:00 until the 27 at 18:00 UTC


261100Z 2612/2718 14008KT CAVOK TX12/2712Z TN04/2619Z
BECMG 2618/2620 4000 -RA OVC014
BECMG 2620/2622 2500 -DZRA OVC005
TEMPO 2622/2711 1000 RADZ OVC003
TEMPO 2716/2718 1000 DZ OVC001
ATIS : +33 5 57 92 81 04



MET'MAP, your aeronautical weather chart ! - Copyright ORBIFLY December 2007 - Disclaimer

ORBIFLY MET'MAP TEAM :

Programming & Development : Alexandra Zaïnal
Concept & original design : Baudouin d'Aumeries
Assistance for programming : Marc-Olivier Méhu
Technical & hardware support : Manuel Goepfert

Contact : metmap@orbifly.com




SOURCES & CREDITS :

   NOAA